Time;durP1;ratioP1;P1;durP2;ratioP2;P2;SDS_P1;SDS_P2;PMS_P1;PMS_P2;Temp;Humidity;BMP_temperature;BMP_pressure;BME280_temperature;BME280_humidity;BME280_pressure;Samples;Min_cycle;Max_cycle;Signal;HPM_P1;HPM_P2
2021/05/07 00:02:00;;;;;;;31.90;18.57;;;;;;;9.41;58.92;99161.69;153713;1104;103142;-76
2021/05/07 00:05:05;;;;;;;33.78;18.60;;;;;;;9.41;58.97;99159.02;153637;1104;103232;-74
2021/05/07 00:08:09;;;;;;;38.53;18.68;;;;;;;9.37;59.11;99160.38;153689;1097;103407;-75
2021/05/07 00:11:16;;;;;;;36.10;19.30;;;;;;;9.28;59.09;99148.09;153643;1104;103322;-75
2021/05/07 00:14:20;;;;;;;34.57;19.50;;;;;;;9.22;59.16;99135.47;153668;1097;103158;-78
2021/05/07 00:17:23;;;;;;;31.20;18.08;;;;;;;9.21;59.49;99133.80;153661;1097;103205;-75
2021/05/07 00:20:27;;;;;;;30.65;16.18;;;;;;;9.19;59.27;99125.98;153614;1104;103205;-76
2021/05/07 00:23:31;;;;;;;22.63;13.63;;;;;;;9.21;59.47;99123.16;153577;1104;103133;-78
2021/05/07 00:26:34;;;;;;;20.98;13.13;;;;;;;9.13;59.61;99109.88;153603;1104;103238;-79
2021/05/07 00:29:38;;;;;;;24.23;14.20;;;;;;;9.01;59.74;99107.59;153630;1105;103209;-76
2021/05/07 00:32:41;;;;;;;22.18;13.35;;;;;;;8.92;60.05;99097.14;153605;1097;103227;-76
2021/05/07 00:35:45;;;;;;;19.40;12.15;;;;;;;8.93;60.50;99102.30;153658;1104;103152;-76
2021/05/07 00:38:49;;;;;;;22.18;13.48;;;;;;;9.00;60.10;99105.09;153609;1097;103187;-74
2021/05/07 00:41:53;;;;;;;20.80;13.17;;;;;;;9.04;60.51;99106.41;153632;1104;103142;-73
2021/05/07 00:44:58;;;;;;;19.43;12.47;;;;;;;8.97;60.27;99105.45;153627;1104;103195;-74
2021/05/07 00:48:04;;;;;;;19.47;11.97;;;;;;;8.98;60.25;99104.44;153608;1104;103210;-74
2021/05/07 00:51:09;;;;;;;22.63;14.37;;;;;;;8.99;60.41;99106.11;153670;1097;103208;-76
2021/05/07 00:54:12;;;;;;;25.30;15.00;;;;;;;9.00;60.27;99095.27;153617;1096;103126;-74
2021/05/07 00:57:17;;;;;;;26.23;16.07;;;;;;;8.99;60.99;99096.29;153628;1097;103114;-75
2021/05/07 01:00:23;;;;;;;22.40;13.08;;;;;;;8.98;60.66;99096.45;153593;1096;103197;-78
2021/05/07 01:03:26;;;;;;;20.85;12.70;;;;;;;9.02;60.39;99085.28;153574;1097;103186;-76
2021/05/07 01:06:32;;;;;;;18.43;12.55;;;;;;;9.07;60.16;99089.29;153639;1097;103059;-77
2021/05/07 01:09:38;;;;;;;24.05;14.78;;;;;;;9.10;60.58;99087.09;153627;1097;103752;-77
2021/05/07 01:12:43;;;;;;;21.10;13.68;;;;;;;9.13;60.54;99075.28;153612;1104;103205;-78
2021/05/07 01:15:47;;;;;;;20.63;12.50;;;;;;;9.13;60.85;99069.97;153620;1104;103173;-77
2021/05/07 01:18:52;;;;;;;18.00;11.97;;;;;;;9.10;60.66;99072.96;153587;1104;103127;-77
2021/05/07 01:21:56;;;;;;;16.70;10.97;;;;;;;9.09;60.77;99065.99;153618;1097;103228;-77
2021/05/07 01:25:00;;;;;;;15.33;11.28;;;;;;;9.11;60.42;99058.66;153602;1096;103142;-74
2021/05/07 01:28:07;;;;;;;17.33;11.67;;;;;;;9.08;60.97;99059.00;153662;1097;103197;-75
2021/05/07 01:31:11;;;;;;;13.17;9.40;;;;;;;9.01;60.54;99053.55;153598;1104;103133;-76
2021/05/07 01:34:21;;;;;;;15.77;10.53;;;;;;;8.93;61.21;99051.75;153665;1104;103200;-75
2021/05/07 01:37:25;;;;;;;15.97;10.63;;;;;;;8.88;61.19;99043.45;153608;1104;103200;-75
2021/05/07 01:40:30;;;;;;;18.00;13.37;;;;;;;8.83;61.03;99045.78;153580;1104;103173;-75
2021/05/07 01:43:34;;;;;;;18.80;11.17;;;;;;;8.81;61.24;99039.81;153780;1097;103604;-75
2021/05/07 01:46:40;;;;;;;17.85;11.48;;;;;;;8.80;61.24;99031.01;153568;1104;103261;-76
2021/05/07 01:49:43;;;;;;;19.18;12.45;;;;;;;8.79;61.00;99023.20;153716;1097;103141;-76
2021/05/07 01:52:47;;;;;;;19.33;12.68;;;;;;;8.75;61.43;99037.84;153666;1104;103191;-76
2021/05/07 01:55:51;;;;;;;16.40;10.98;;;;;;;8.69;61.44;99027.89;153625;1104;103190;-76
2021/05/07 01:59:12;;;;;;;17.78;11.68;;;;;;;8.69;61.54;99019.91;153781;1096;103109;-76
2021/05/07 02:02:16;;;;;;;15.40;10.75;;;;;;;8.70;61.19;99014.43;153639;1104;103133;-77
2021/05/07 02:05:20;;;;;;;15.38;11.15;;;;;;;8.68;61.53;99012.92;153620;1104;103200;-77
2021/05/07 02:08:24;;;;;;;15.10;10.33;;;;;;;8.68;61.05;99004.95;153587;1104;103144;-77
2021/05/07 02:11:28;;;;;;;16.23;10.80;;;;;;;8.68;61.49;98997.82;153656;1104;103356;-77
2021/05/07 02:14:32;;;;;;;15.50;10.53;;;;;;;8.67;61.82;98993.48;153634;1097;103168;-76
2021/05/07 02:17:35;;;;;;;15.90;10.78;;;;;;;8.66;61.36;98991.84;153629;1097;103192;-76
2021/05/07 02:20:40;;;;;;;16.70;10.60;;;;;;;8.63;61.85;98978.88;153563;1104;103135;-76
2021/05/07 02:23:43;;;;;;;15.50;9.53;;;;;;;8.60;61.58;98972.09;153607;1097;103147;-76
2021/05/07 02:26:47;;;;;;;14.83;9.10;;;;;;;8.60;61.34;98972.09;153610;1096;103329;-77
2021/05/07 02:29:52;;;;;;;14.70;9.37;;;;;;;8.62;62.14;98972.74;153616;1096;103146;-75
2021/05/07 02:32:56;;;;;;;14.65;9.48;;;;;;;8.64;61.80;98973.40;153547;1104;103213;-76
2021/05/07 02:36:01;;;;;;;15.97;10.60;;;;;;;8.68;61.99;98960.59;153627;1104;103208;-76
2021/05/07 02:39:06;;;;;;;16.00;10.10;;;;;;;8.70;62.35;98942.63;153572;1097;103234;-78
2021/05/07 02:42:10;;;;;;;16.83;11.10;;;;;;;8.70;62.04;98955.92;153671;1096;103574;-77
2021/05/07 02:45:15;;;;;;;16.05;11.23;;;;;;;8.71;62.40;98957.56;153751;1097;103192;-75
2021/05/07 02:48:19;;;;;;;15.05;10.65;;;;;;;8.72;61.90;98948.60;154215;1104;103131;-72
2021/05/07 02:51:23;;;;;;;16.70;10.60;;;;;;;8.68;62.37;98949.95;153643;1096;103146;-73
2021/05/07 02:54:28;;;;;;;15.65;11.30;;;;;;;8.68;62.42;98943.78;153658;1096;103141;-74
2021/05/07 02:57:31;;;;;;;15.57;11.00;;;;;;;8.65;62.24;98943.13;153613;1096;103282;-73
2021/05/07 03:00:35;;;;;;;15.68;10.50;;;;;;;8.64;62.22;98940.64;153659;1104;103205;-73
2021/05/07 03:03:39;;;;;;;14.48;9.88;;;;;;;8.61;62.52;98935.69;153658;1096;103203;-73
2021/05/07 03:06:43;;;;;;;16.87;11.27;;;;;;;8.63;62.82;98936.34;153807;1096;103205;-74
2021/05/07 03:09:46;;;;;;;19.05;12.70;;;;;;;8.68;62.44;98939.31;153951;1094;103192;-75
2021/05/07 03:12:50;;;;;;;18.43;12.00;;;;;;;8.72;62.91;98942.43;153711;1096;103079;-76
2021/05/07 03:15:53;;;;;;;21.50;13.07;;;;;;;8.71;62.71;98940.79;153674;1096;103252;-75
2021/05/07 03:18:57;;;;;;;23.80;15.25;;;;;;;8.76;62.75;98943.77;153592;1104;103205;-76
2021/05/07 03:22:01;;;;;;;23.40;15.63;;;;;;;8.81;63.34;98946.72;153635;1096;103137;-71
2021/05/07 03:25:05;;;;;;;20.17;14.00;;;;;;;8.82;62.95;98948.39;153552;1096;103221;-73
2021/05/07 03:28:10;;;;;;;17.48;12.30;;;;;;;8.82;63.16;98954.53;153585;1096;103278;-73
2021/05/07 03:31:13;;;;;;;18.13;11.50;;;;;;;8.82;63.46;98959.03;153595;1104;103240;-71
2021/05/07 03:34:17;;;;;;;15.90;10.18;;;;;;;8.83;63.07;98958.01;153772;1104;103221;-72
2021/05/07 03:37:20;;;;;;;14.20;9.70;;;;;;;8.83;63.20;98958.01;153535;1104;103155;-71
2021/05/07 03:40:24;;;;;;;16.20;10.23;;;;;;;8.84;63.12;98957.84;153468;1104;103142;-71
2021/05/07 03:43:27;;;;;;;14.65;10.55;;;;;;;8.76;63.45;98944.59;153554;1096;103279;-71
2021/05/07 03:46:31;;;;;;;16.28;11.13;;;;;;;8.64;63.53;98952.13;153482;1096;103137;-72
2021/05/07 03:49:35;;;;;;;19.35;11.10;;;;;;;8.61;64.16;98947.14;153615;1104;103134;-72
2021/05/07 03:52:41;;;;;;;16.50;10.75;;;;;;;8.53;63.22;98955.16;153607;1104;103129;-71
2021/05/07 03:55:44;;;;;;;18.30;11.60;;;;;;;8.52;64.02;98947.34;153668;1104;103162;-72
2021/05/07 03:58:48;;;;;;;16.87;11.40;;;;;;;8.46;63.58;98956.84;153596;1104;103378;-72
2021/05/07 04:01:51;;;;;;;16.55;11.75;;;;;;;8.43;63.86;98959.86;153631;1104;103163;-72
2021/05/07 04:04:55;;;;;;;16.63;11.00;;;;;;;8.40;64.40;98954.84;153648;1096;103142;-71
2021/05/07 04:08:06;;;;;;;14.85;10.08;;;;;;;8.32;64.78;98962.84;153557;1104;103479;-73
2021/05/07 04:11:17;;;;;;;13.03;9.37;;;;;;;8.40;64.06;98955.66;153625;1096;103197;-72
2021/05/07 04:14:21;;;;;;;13.90;9.70;;;;;;;8.57;64.42;98951.15;153598;1096;103682;-70
2021/05/07 04:17:24;;;;;;;14.78;10.93;;;;;;;8.75;64.57;98947.42;153470;1104;103188;-70
2021/05/07 04:20:28;;;;;;;15.73;11.10;;;;;;;8.89;64.48;98949.36;153510;1104;103209;-71
2021/05/07 04:23:31;;;;;;;14.27;9.77;;;;;;;9.04;64.42;98957.40;153463;1096;103671;-71
2021/05/07 04:26:35;;;;;;;14.88;10.35;;;;;;;9.15;64.20;98951.69;153495;1096;103135;-70
2021/05/07 04:29:40;;;;;;;13.37;10.20;;;;;;;9.22;64.32;98959.81;153463;1104;103358;-71
2021/05/07 04:32:43;;;;;;;14.70;10.37;;;;;;;9.24;64.24;98955.95;153647;1104;103196;-73
2021/05/07 04:35:47;;;;;;;14.43;10.18;;;;;;;9.24;64.36;98953.30;153586;1096;103158;-73
2021/05/07 04:38:55;;;;;;;16.33;11.17;;;;;;;9.27;63.94;98960.09;153573;1104;103222;-72
2021/05/07 04:41:59;;;;;;;14.83;9.70;;;;;;;9.25;64.39;98954.11;153607;1104;103124;-74
2021/05/07 04:45:03;;;;;;;12.67;9.00;;;;;;;9.34;64.43;98955.72;153563;1104;103219;-73
2021/05/07 04:48:14;;;;;;;14.33;9.57;;;;;;;9.44;64.35;98964.30;153651;1104;103203;-74
2021/05/07 04:51:17;;;;;;;14.43;9.43;;;;;;;9.54;64.10;98956.06;153605;1104;103240;-73
2021/05/07 04:54:21;;;;;;;18.07;11.77;;;;;;;9.62;64.03;98958.69;153582;1096;103113;-71
2021/05/07 04:57:25;;;;;;;22.60;15.73;;;;;;;9.60;64.20;98962.52;153662;1096;103149;-73
2021/05/07 05:00:28;;;;;;;17.58;11.63;;;;;;;9.67;64.06;98960.80;153587;1096;103206;-72
2021/05/07 05:03:32;;;;;;;15.87;11.23;;;;;;;9.71;64.20;98964.76;153623;1104;103230;-72
2021/05/07 05:06:36;;;;;;;18.33;12.63;;;;;;;9.72;64.56;98966.42;153701;1104;103224;-73
2021/05/07 05:09:39;;;;;;;18.63;13.20;;;;;;;9.67;64.42;98962.64;153584;1104;103230;-72
2021/05/07 05:12:43;;;;;;;19.10;14.40;;;;;;;9.61;64.17;98962.34;153616;1104;103171;-72
2021/05/07 05:15:47;;;;;;;20.60;15.78;;;;;;;9.44;64.92;98964.30;153594;1104;103298;-71
2021/05/07 05:18:51;;;;;;;19.40;13.80;;;;;;;9.20;64.78;98967.96;153641;1097;103253;-72
2021/05/07 05:21:54;;;;;;;17.57;12.43;;;;;;;9.03;64.57;98967.22;153657;1104;103144;-72
2021/05/07 05:25:03;;;;;;;17.63;12.13;;;;;;;9.06;64.89;98967.88;153603;1105;103137;-72
2021/05/07 05:28:08;;;;;;;17.33;13.53;;;;;;;9.17;65.33;98962.16;153629;1104;103496;-74
2021/05/07 05:31:13;;;;;;;17.75;13.80;;;;;;;9.28;65.04;98964.42;153623;1096;103272;-71
2021/05/07 05:34:16;;;;;;;43.70;25.07;;;;;;;9.33;65.13;98956.72;153611;1096;103135;-73
2021/05/07 05:37:20;;;;;;;27.95;19.25;;;;;;;9.49;65.22;98955.79;153598;1104;103206;-72
2021/05/07 05:40:25;;;;;;;18.57;14.03;;;;;;;9.59;64.86;98960.88;153569;1097;103143;-72
2021/05/07 05:43:28;;;;;;;23.38;16.80;;;;;;;9.67;65.05;98960.80;153613;1097;103142;-71
2021/05/07 05:46:32;;;;;;;20.43;15.70;;;;;;;9.79;64.70;98964.68;153677;1097;103291;-72
2021/05/07 05:49:35;;;;;;;19.90;14.78;;;;;;;9.87;65.00;98962.95;153737;1105;103534;-72
2021/05/07 05:52:39;;;;;;;17.23;11.95;;;;;;;9.91;64.81;98969.58;153655;1104;103227;-72
2021/05/07 05:55:43;;;;;;;15.30;10.73;;;;;;;9.85;64.64;98970.31;153627;1104;103143;-72
2021/05/07 05:58:46;;;;;;;17.75;12.53;;;;;;;9.77;64.92;98965.88;153661;1104;103125;-74
2021/05/07 06:01:51;;;;;;;15.88;12.73;;;;;;;9.75;65.04;98963.39;153624;1097;103144;-71
2021/05/07 06:04:54;;;;;;;16.13;12.50;;;;;;;9.81;65.00;98969.83;153736;1096;103205;-74
2021/05/07 06:07:58;;;;;;;16.03;11.37;;;;;;;9.88;65.83;98964.63;153609;1096;103255;-72
2021/05/07 06:11:02;;;;;;;15.55;11.75;;;;;;;9.86;65.27;98971.98;153693;1096;103164;-71
2021/05/07 06:14:06;;;;;;;15.03;11.83;;;;;;;9.88;65.60;98970.78;153782;1104;103200;-72
2021/05/07 06:17:10;;;;;;;15.60;11.53;;;;;;;9.99;65.58;98966.86;153661;1096;103238;-73
2021/05/07 06:20:16;;;;;;;15.85;11.73;;;;;;;10.05;66.18;98971.46;153656;1104;103202;-74
2021/05/07 06:23:19;;;;;;;14.65;9.95;;;;;;;9.94;66.19;98974.56;153576;1096;103158;-72
2021/05/07 06:26:23;;;;;;;16.53;11.08;;;;;;;9.80;66.21;98977.00;153590;1104;103207;-73
2021/05/07 06:29:27;;;;;;;13.83;10.70;;;;;;;9.62;65.94;98973.81;153596;1104;103208;-72
2021/05/07 06:32:31;;;;;;;14.80;11.65;;;;;;;9.61;66.66;98980.16;153593;1104;103292;-72
2021/05/07 06:35:34;;;;;;;15.38;11.55;;;;;;;9.60;66.35;98975.83;153626;1104;103139;-72
2021/05/07 06:38:38;;;;;;;13.68;11.63;;;;;;;9.65;66.91;98975.31;153620;1097;103546;-72
2021/05/07 06:41:42;;;;;;;17.93;13.93;;;;;;;9.64;67.06;98977.13;153674;1097;103259;-72
2021/05/07 06:44:45;;;;;;;21.05;15.65;;;;;;;9.77;66.08;98977.35;153631;1104;103578;-73
2021/05/07 06:47:49;;;;;;;18.30;13.40;;;;;;;9.95;66.26;98976.20;153570;1104;103230;-73
2021/05/07 06:50:52;;;;;;;15.63;11.33;;;;;;;9.97;66.84;98969.70;153636;1097;103173;-72
2021/05/07 06:53:56;;;;;;;15.00;11.58;;;;;;;9.97;65.99;98974.21;153642;1104;103209;-72
2021/05/07 06:57:01;;;;;;;13.00;10.60;;;;;;;9.97;65.95;98964.38;153603;1105;103211;-72
2021/05/07 07:00:08;;;;;;;14.00;10.60;;;;;;;9.93;66.12;98978.22;153630;1104;103132;-74
2021/05/07 07:03:11;;;;;;;12.68;10.20;;;;;;;9.78;65.79;98976.36;153624;1097;103256;-71
2021/05/07 07:06:15;;;;;;;14.60;11.20;;;;;;;9.67;66.35;98974.12;153695;1104;103212;-73
2021/05/07 07:09:19;;;;;;;12.95;10.03;;;;;;;9.67;66.21;98968.79;153634;1104;103206;-72
2021/05/07 07:12:23;;;;;;;14.83;10.40;;;;;;;9.70;66.13;98972.92;153614;1096;103211;-72
2021/05/07 07:15:26;;;;;;;12.27;10.17;;;;;;;9.62;66.23;98968.48;153600;1104;103137;-72
2021/05/07 07:18:30;;;;;;;13.10;10.40;;;;;;;9.57;66.19;98977.02;153599;1096;103280;-72
2021/05/07 07:21:34;;;;;;;11.35;9.00;;;;;;;9.60;66.09;98987.33;153629;1104;103208;-73
2021/05/07 07:24:37;;;;;;;12.50;8.40;;;;;;;9.57;66.30;98977.02;153600;1104;103213;-72
2021/05/07 07:27:41;;;;;;;12.50;9.35;;;;;;;9.61;66.18;98986.31;153557;1096;103100;-72
2021/05/07 07:30:44;;;;;;;14.03;10.00;;;;;;;9.60;66.26;98987.33;153602;1096;103207;-72
2021/05/07 07:33:48;;;;;;;13.13;10.33;;;;;;;9.57;66.58;98990.34;153638;1097;103246;-72
2021/05/07 07:36:51;;;;;;;11.93;9.80;;;;;;;9.54;66.05;98990.68;153859;1097;103139;-72
2021/05/07 07:39:55;;;;;;;11.87;10.10;;;;;;;9.43;65.93;98994.60;153690;1097;103153;-73
2021/05/07 07:42:58;;;;;;;13.38;10.83;;;;;;;9.39;65.99;98998.63;153741;1104;103152;-72
2021/05/07 07:46:02;;;;;;;14.20;10.48;;;;;;;9.33;66.33;99009.95;153785;1096;103125;-72
2021/05/07 07:49:06;;;;;;;13.83;10.87;;;;;;;9.27;66.42;99002.67;153624;1104;103204;-72
2021/05/07 07:52:09;;;;;;;11.23;9.13;;;;;;;9.27;66.41;98999.20;153675;1104;103163;-72
2021/05/07 07:55:14;;;;;;;15.50;10.75;;;;;;;9.29;66.36;99003.33;153818;1104;103154;-71
2021/05/07 07:58:19;;;;;;;18.33;13.73;;;;;;;9.40;66.94;99004.77;153862;1096;103134;-73
2021/05/07 08:01:22;;;;;;;11.87;9.13;;;;;;;9.49;66.10;98997.55;153747;1095;103227;-72
2021/05/07 08:04:26;;;;;;;12.20;8.90;;;;;;;9.56;66.30;99003.83;153582;1096;103286;-72
2021/05/07 08:07:29;;;;;;;13.90;10.78;;;;;;;9.67;66.26;99005.26;153642;1104;103207;-74
2021/05/07 08:10:33;;;;;;;12.23;9.40;;;;;;;9.75;66.86;99016.66;153606;1096;103141;-71
2021/05/07 08:13:36;;;;;;;12.10;8.20;;;;;;;9.73;66.23;99013.34;153602;1104;103205;-72
2021/05/07 08:16:40;;;;;;;10.98;8.85;;;;;;;9.70;67.21;99016.39;153812;1096;103209;-72
2021/05/07 08:19:44;;;;;;;11.10;8.13;;;;;;;9.55;67.21;99021.64;153698;1104;103315;-72
2021/05/07 08:22:48;;;;;;;9.70;7.87;;;;;;;9.52;67.04;99021.98;153664;1104;103595;-72
2021/05/07 08:25:52;;;;;;;10.03;7.87;;;;;;;9.59;66.71;99022.95;153875;1104;103157;-72
2021/05/07 08:28:55;;;;;;;10.00;7.85;;;;;;;9.65;66.74;99024.08;153775;1104;103190;-72
2021/05/07 08:31:59;;;;;;;9.97;7.73;;;;;;;9.68;66.56;99033.53;153622;1104;103199;-71
2021/05/07 08:35:03;;;;;;;10.70;6.97;;;;;;;9.54;67.40;99035.13;153594;1104;103598;-72
2021/05/07 08:38:08;;;;;;;8.60;6.20;;;;;;;9.54;66.69;99032.47;153770;1104;103120;-72
2021/05/07 08:41:12;;;;;;;7.23;5.70;;;;;;;9.45;66.85;99045.02;153854;1097;103123;-72
2021/05/07 08:44:16;;;;;;;7.13;5.20;;;;;;;9.41;66.54;99044.54;153808;1104;103208;-72
2021/05/07 08:47:21;;;;;;;7.27;5.30;;;;;;;9.52;66.53;99039.80;153667;1096;103136;-72
2021/05/07 08:50:24;;;;;;;8.80;5.50;;;;;;;9.54;66.67;99041.28;153611;1104;103279;-72
2021/05/07 08:53:29;;;;;;;101.33;60.37;;;;;;;9.58;66.38;99039.09;153722;1104;103155;-72
2021/05/07 08:56:33;;;;;;;18.03;12.10;;;;;;;9.81;66.53;99045.28;153861;1096;103147;-73
2021/05/07 08:59:36;;;;;;;12.87;8.00;;;;;;;9.99;66.24;99047.63;153637;1104;103205;-72
2021/05/07 09:02:40;;;;;;;15.87;10.73;;;;;;;10.10;65.83;99041.02;153592;1096;103186;-72
2021/05/07 09:05:44;;;;;;;8.43;6.37;;;;;;;10.14;65.85;99055.67;153597;1096;103212;-72
2021/05/07 09:08:48;;;;;;;6.20;4.80;;;;;;;10.09;66.54;99057.22;153730;1096;103188;-72
2021/05/07 09:11:52;;;;;;;5.65;4.78;;;;;;;9.84;66.02;99065.40;153820;1104;103161;-71
2021/05/07 09:14:57;;;;;;;8.33;5.20;;;;;;;9.76;66.21;99079.61;153848;1104;103114;-73
2021/05/07 09:18:02;;;;;;;9.47;6.10;;;;;;;9.78;65.83;99082.92;153923;1096;103157;-72
2021/05/07 09:21:06;;;;;;;6.60;4.90;;;;;;;9.73;66.16;99079.94;153877;1096;103259;-72
2021/05/07 09:24:11;;;;;;;10.25;9.15;;;;;;;9.64;65.74;99086.32;153846;1104;103269;-73
2021/05/07 09:27:22;;;;;;;11.10;7.30;;;;;;;9.56;66.08;99091.70;153707;1104;103142;-72
2021/05/07 09:30:29;;;;;;;8.70;6.20;;;;;;;9.58;66.28;99092.36;153803;1096;103173;-72
2021/05/07 09:33:32;;;;;;;10.18;6.38;;;;;;;9.50;66.04;99100.40;153902;1096;103227;-74
2021/05/07 09:36:36;;;;;;;5.27;3.90;;;;;;;9.48;66.12;99107.73;153697;1096;103269;-72
2021/05/07 09:39:40;;;;;;;50.95;44.75;;;;;;;9.47;65.91;99111.39;153831;1104;103208;-72
2021/05/07 09:42:45;;;;;;;20.98;16.05;;;;;;;9.54;66.25;99109.69;153609;1104;103204;-73
2021/05/07 09:45:50;;;;;;;9.80;7.50;;;;;;;9.59;66.39;99102.84;153652;1096;103202;-74
2021/05/07 09:48:53;;;;;;;7.35;6.55;;;;;;;9.68;66.01;99110.78;153685;1104;103185;-72
2021/05/07 09:51:58;;;;;;;5.20;4.25;;;;;;;9.63;65.82;99104.14;153719;1104;103326;-72
2021/05/07 09:55:02;;;;;;;4.93;3.73;;;;;;;9.67;66.03;99117.95;153676;1104;103128;-72
2021/05/07 09:58:06;;;;;;;5.60;3.60;;;;;;;9.75;65.89;99120.55;153624;1104;103148;-72
2021/05/07 10:01:10;;;;;;;4.37;3.60;;;;;;;9.83;65.12;99128.52;153573;1096;103173;-72
2021/05/07 10:04:15;;;;;;;21.55;13.65;;;;;;;9.80;66.02;99128.86;153694;1104;103129;-72
2021/05/07 10:07:18;;;;;;;12.30;7.37;;;;;;;9.90;65.87;99138.47;153647;1097;103855;-72
2021/05/07 10:10:27;;;;;;;16.45;11.18;;;;;;;10.02;65.96;99134.38;153607;1104;103199;-73
2021/05/07 10:13:34;;;;;;;7.38;4.98;;;;;;;10.14;65.32;99130.31;153629;1104;103132;-71
2021/05/07 10:16:39;;;;;;;5.50;4.00;;;;;;;10.29;64.76;99127.67;153484;1104;103211;-71
2021/05/07 10:19:43;;;;;;;5.48;4.23;;;;;;;10.34;64.84;99129.86;153481;1097;103113;-73
2021/05/07 10:22:47;;;;;;;3.80;3.30;;;;;;;10.37;63.61;99133.00;153771;1096;103222;-71
2021/05/07 10:25:59;;;;;;;5.27;3.70;;;;;;;10.36;64.36;99131.33;153520;1104;104327;-72
2021/05/07 10:29:01;;;;;;;;;;;;;;;10.58;64.51;99120.80;153611;1104;103547;-71
2021/05/07 10:32:05;;;;;;;5.13;3.50;;;;;;;10.78;64.63;99131.80;153632;1096;103216;-71
2021/05/07 10:35:11;;;;;;;4.50;3.68;;;;;;;10.84;63.99;99139.06;153593;1096;103128;-71
2021/05/07 10:38:17;;;;;;;8.23;3.30;;;;;;;10.59;62.86;99141.96;153529;1104;103275;-72
2021/05/07 10:41:21;;;;;;;4.65;3.35;;;;;;;10.50;64.28;99140.37;153593;1096;103501;-71
2021/05/07 10:44:26;;;;;;;4.80;3.40;;;;;;;10.50;64.27;99150.22;153671;1104;103205;-71
2021/05/07 10:47:35;;;;;;;6.87;4.13;;;;;;;10.51;63.74;99141.22;153621;1104;103135;-71
2021/05/07 10:50:42;;;;;;;5.37;4.00;;;;;;;10.41;63.78;99141.44;153600;1104;103119;-71
2021/05/07 10:53:46;;;;;;;5.50;4.00;;;;;;;10.38;63.75;99136.48;153603;1104;103280;-71
2021/05/07 10:56:50;;;;;;;6.13;4.10;;;;;;;10.41;63.72;99136.95;153610;1104;103224;-72
2021/05/07 10:59:57;;;;;;;6.28;4.65;;;;;;;10.49;63.75;99143.21;153530;1096;103246;-72
2021/05/07 11:03:01;;;;;;;6.37;4.43;;;;;;;10.56;64.02;99144.98;153588;1096;103203;-71
2021/05/07 11:06:05;;;;;;;5.90;4.55;;;;;;;10.66;63.85;99149.23;153768;1104;103208;-71
2021/05/07 11:09:22;;;;;;;4.18;3.60;;;;;;;10.64;64.33;99140.59;153589;1104;103289;-72
2021/05/07 11:12:26;;;;;;;5.05;4.23;;;;;;;10.77;63.36;99152.29;153621;1104;103224;-71
2021/05/07 11:15:30;;;;;;;6.70;5.13;;;;;;;10.73;63.79;99147.51;153487;1104;103135;-71
2021/05/07 11:18:34;;;;;;;5.30;4.50;;;;;;;10.92;63.70;99149.65;153515;1104;103226;-70
2021/05/07 11:21:37;;;;;;;7.18;4.53;;;;;;;10.86;62.95;99157.57;153851;1104;103204;-71
2021/05/07 11:24:43;;;;;;;6.70;4.47;;;;;;;10.67;64.12;99166.91;153802;1104;103269;-71
2021/05/07 11:27:46;;;;;;;8.27;6.40;;;;;;;10.66;64.19;99174.06;153719;1104;103108;-73
2021/05/07 11:30:52;;;;;;;6.57;5.17;;;;;;;10.34;64.24;99173.34;153606;1104;103576;-71
2021/05/07 11:33:56;;;;;;;8.40;6.03;;;;;;;9.93;65.27;99189.58;153535;1097;103141;-71
2021/05/07 11:37:00;;;;;;;6.93;5.63;;;;;;;9.76;65.33;99190.67;153589;1097;103576;-71
2021/05/07 11:40:07;;;;;;;5.70;5.00;;;;;;;9.58;66.11;99189.08;153661;1104;103215;-71
2021/05/07 11:43:12;;;;;;;7.50;5.63;;;;;;;9.44;65.82;99206.58;153725;1096;103199;-71
2021/05/07 11:46:17;;;;;;;7.80;5.20;;;;;;;9.48;66.58;99203.59;153659;1104;103557;-71
2021/05/07 11:49:21;;;;;;;7.90;5.27;;;;;;;9.54;65.66;99197.58;153499;1096;103203;-71
2021/05/07 11:52:37;;;;;;;6.65;5.03;;;;;;;9.62;66.32;99195.72;153628;1104;103208;-72
2021/05/07 11:55:40;;;;;;;6.00;4.30;;;;;;;9.75;65.52;99203.14;153632;1105;103286;-71
2021/05/07 11:58:47;;;;;;;5.83;4.80;;;;;;;9.83;64.95;99208.45;153625;1104;103205;-70
2021/05/07 12:01:51;;;;;;;7.58;5.73;;;;;;;9.78;65.22;99201.98;153547;1104;103137;-71
2021/05/07 12:04:55;;;;;;;7.70;6.05;;;;;;;9.81;64.97;99197.14;153466;1104;103138;-71
2021/05/07 12:07:59;;;;;;;6.60;5.40;;;;;;;9.79;65.13;99191.13;153669;1096;103113;-70
2021/05/07 12:11:11;;;;;;;5.77;4.97;;;;;;;9.94;65.36;99187.73;153565;1096;103214;-72
2021/05/07 12:14:15;;;;;;;5.63;4.47;;;;;;;10.08;64.92;99196.81;153539;1096;103135;-73
2021/05/07 12:17:21;;;;;;;6.27;4.30;;;;;;;10.18;64.38;99184.07;153654;1104;103662;-70
2021/05/07 12:20:26;;;;;;;5.85;4.20;;;;;;;10.18;64.48;99189.41;153547;1096;103154;-70
2021/05/07 12:23:43;;;;;;;7.30;5.00;;;;;;;10.32;64.39;99177.20;153510;1104;103125;-71
2021/05/07 12:26:50;;;;;;;4.30;3.57;;;;;;;10.50;64.44;99193.71;153543;1104;103273;-71
2021/05/07 12:29:54;;;;;;;3.90;3.38;;;;;;;10.77;64.54;99196.83;153555;1104;103164;-72
2021/05/07 12:33:03;;;;;;;3.50;2.87;;;;;;;10.95;64.13;99193.82;153520;1104;103110;-72
2021/05/07 12:36:17;;;;;;;3.70;3.23;;;;;;;10.98;63.92;99191.63;153494;1096;103138;-71
2021/05/07 12:39:26;;;;;;;5.55;4.30;;;;;;;11.00;64.39;99192.27;153607;1104;103527;-74
2021/05/07 12:42:29;;;;;;;4.20;3.60;;;;;;;11.28;63.88;99186.33;153562;1104;103285;-72
2021/05/07 12:45:33;;;;;;;6.40;4.50;;;;;;;11.54;63.10;99180.49;153678;1096;103498;-70
2021/05/07 12:48:37;;;;;;;4.93;3.70;;;;;;;11.55;63.41;99182.16;153547;1096;103201;-71
2021/05/07 12:51:40;;;;;;;5.23;3.73;;;;;;;11.47;62.99;99184.09;153562;1096;103131;-71
2021/05/07 12:54:45;;;;;;;4.53;3.98;;;;;;;11.34;62.98;99179.42;153510;1096;103207;-71
2021/05/07 12:57:48;;;;;;;4.35;3.10;;;;;;;11.22;62.57;99181.72;153605;1104;103190;-72
2021/05/07 13:00:54;;;;;;;3.90;3.03;;;;;;;11.27;62.17;99181.16;153594;1096;103209;-71
2021/05/07 13:03:58;;;;;;;4.63;3.63;;;;;;;11.55;63.75;99182.16;153559;1104;103600;-72
2021/05/07 13:07:02;;;;;;;6.05;4.50;;;;;;;11.97;62.75;99179.80;153619;1104;103147;-71
2021/05/07 13:10:07;;;;;;;5.35;4.65;;;;;;;12.21;63.13;99173.28;153600;1096;103129;-71
2021/05/07 13:13:10;;;;;;;5.53;4.78;;;;;;;12.47;62.60;99174.55;153562;1096;103202;-72
2021/05/07 13:16:14;;;;;;;7.30;4.90;;;;;;;12.67;61.75;99180.09;153626;1096;103224;-73
2021/05/07 13:19:17;;;;;;;5.80;5.00;;;;;;;12.60;61.32;99179.20;153588;1096;103581;-72
2021/05/07 13:22:21;;;;;;;6.00;5.30;;;;;;;12.53;62.02;99179.97;153545;1096;103121;-71
2021/05/07 13:25:25;;;;;;;7.55;6.38;;;;;;;12.71;61.64;99176.00;153448;1104;103135;-72
2021/05/07 13:28:28;;;;;;;7.40;6.60;;;;;;;12.70;60.23;99193.07;153620;1104;103193;-73
2021/05/07 13:31:33;;;;;;;7.35;6.45;;;;;;;12.46;61.04;99192.45;153483;1104;103573;-72
2021/05/07 13:34:38;;;;;;;10.30;7.87;;;;;;;12.23;61.11;99199.84;153522;1096;103156;-71
2021/05/07 13:37:44;;;;;;;9.33;7.80;;;;;;;11.87;58.95;99205.98;153600;1096;103156;-71
2021/05/07 13:40:50;;;;;;;8.63;7.10;;;;;;;11.51;59.90;99207.59;153498;1104;103141;-72
2021/05/07 13:43:54;;;;;;;10.15;9.08;;;;;;;11.33;61.39;99215.95;153626;1104;103189;-71
2021/05/07 13:46:57;;;;;;;11.28;10.00;;;;;;;11.28;62.04;99217.52;153479;1104;103187;-72
2021/05/07 13:50:01;;;;;;;13.00;10.55;;;;;;;11.21;61.37;99225.44;153595;1104;103253;-72
2021/05/07 13:53:04;;;;;;;9.30;7.53;;;;;;;10.97;60.72;99232.69;153471;1096;103158;-73
2021/05/07 13:56:08;;;;;;;10.00;7.73;;;;;;;10.79;61.11;99237.50;153452;1096;103211;-71
2021/05/07 13:59:12;;;;;;;8.50;6.70;;;;;;;10.62;61.01;99236.80;153481;1096;103352;-72
2021/05/07 14:02:18;;;;;;;9.50;7.15;;;;;;;10.44;61.14;99236.28;153712;1104;103142;-73
2021/05/07 14:05:23;;;;;;;11.63;9.07;;;;;;;10.39;61.56;99245.64;153567;1104;103141;-71